Date,TemperatureHighF,TemperatureAvgF,TemperatureLowF,DewpointHighF,DewpointAvgF,DewpointLowF,HumidityHigh,HumidityAvg,HumidityLow,PressureMaxIn,PressureMinIn,WindSpeedMaxMPH,WindSpeedAvgMPH,GustSpeedMaxMPH,PrecipitationSumIn
2013-2-1,14.8,9.5,3.7,9.9,4.5,-0.8,84,80,73,30.43,30.11,29,13,30,0.00
2013-2-2,25.0,20.0,14.7,22.5,17.5,9.9,93,90,81,30.30,30.02,17,6,17,0.00
2013-2-3,20.6,15.2,10.0,16.5,12.1,6.4,92,87,82,30.13,29.99,20,6,20,0.00
2013-2-4,27.4,22.5,12.2,24.2,20.3,9.7,94,91,87,30.13,29.88,14,2,14,0.00
2013-2-5,31.4,24.5,10.4,29.7,21.9,8.7,96,90,75,30.07,29.85,16,4,17,0.00
2013-2-6,39.9,31.0,23.1,30.1,24.7,20.0,90,78,56,30.31,30.07,11,2,11,0.00
2013-2-7,42.6,34.4,28.6,37.1,30.8,26.0,96,87,79,30.25,29.82,19,6,19,0.06
2013-2-8,35.8,31.8,27.6,34.8,27.9,22.4,96,86,74,30.40,29.82,29,8,30,0.01
2013-2-9,35.5,28.4,21.4,27.9,24.1,19.4,94,84,72,30.46,30.23,18,5,18,0.00
2013-2-10,48.7,39.4,31.5,47.1,34.9,25.5,96,84,76,30.23,29.65,25,10,26,0.06
2013-2-11,49.2,36.6,30.6,47.2,31.2,24.5,94,81,73,30.03,29.63,46,20,46,0.01
2013-2-12,33.9,29.6,27.3,28.0,24.8,22.5,86,82,77,30.15,29.99,23,8,23,0.00
2013-2-13,42.7,32.2,20.9,33.6,27.4,19.4,96,83,67,29.99,29.78,16,3,16,0.00
2013-2-14,40.9,36.1,31.8,36.2,31.7,24.8,92,84,69,29.99,29.76,34,10,34,0.00
2013-2-15,31.9,28.4,22.2,27.4,23.1,17.7,92,81,66,30.20,29.98,18,3,18,0.00
2013-2-16,24.2,19.6,14.5,20.9,14.4,7.1,91,80,60,30.19,30.12,21,4,22,0.00
2013-2-17,29.1,20.4,10.5,16.9,12.6,6.7,86,73,49,30.29,30.18,15,3,15,0.00
2013-2-18,52.4,38.3,23.8,44.2,30.7,15.8,97,74,63,30.20,29.54,39,13,41,0.03
2013-2-19,43.6,21.5,15.0,43.1,18.2,10.0,98,87,79,30.14,29.51,37,19,37,0.00
2013-2-20,22.2,17.2,10.6,18.5,12.9,6.7,87,83,78,30.39,30.14,22,10,22,0.00
2013-2-21,27.4,24.0,20.8,21.7,19.5,16.9,89,83,77,30.43,30.11,32,10,32,0.00
2013-2-22,33.7,28.5,21.5,33.2,27.0,19.6,98,94,85,30.11,29.91,31,12,56,0.03
2013-2-23,29.5,26.9,25.3,25.5,22.8,20.9,89,84,76,30.02,29.96,19,11,19,0.00
2013-2-24,36.9,27.5,17.8,27.2,22.5,15.7,93,82,64,30.21,30.01,17,4,18,0.00
2013-2-25,40.8,32.1,23.1,32.0,27.2,21.5,95,82,68,30.25,30.02,18,5,18,0.00
2013-2-26,34.2,33.2,32.0,33.5,30.2,26.3,98,89,75,30.02,29.48,28,11,29,0.19
2013-2-27,34.0,32.5,30.9,33.4,31.9,30.3,98,98,96,29.67,29.48,23,7,23,0.18
2013-2-28,36.7,33.8,31.8,33.2,31.8,28.8,99,93,86,30.01,29.64,18,6,18,0.07